Time;durP1;ratioP1;P1;durP2;ratioP2;P2;SDS_P1;SDS_P2;PMS_P1;PMS_P2;Temp;Humidity;BMP_temperature;BMP_pressure;BME280_temperature;BME280_humidity;BME280_pressure;Samples;Min_cycle;Max_cycle;Signal;HPM_P1;HPM_P2
2023/03/21 00:02:22;;;;;;;64.30;37.50;;;;;;;3.84;65.95;99196.79;107707;1256;75027;-38
2023/03/21 00:04:53;;;;;;;63.70;37.00;;;;;;;3.84;65.98;99195.36;107725;1251;69935;-38
2023/03/21 00:07:25;;;;;;;69.00;41.00;;;;;;;3.80;66.27;99193.41;107714;1251;73893;-37
2023/03/21 00:09:54;;;;;;;62.10;37.80;;;;;;;3.74;66.61;99191.81;107647;1251;60781;-37
2023/03/21 00:12:36;;;;;;;49.70;28.40;;;;;;;3.69;66.99;99193.52;107621;1251;61506;-39
2023/03/21 00:15:06;;;;;;;65.40;39.20;;;;;;;3.61;67.14;99191.52;107555;1251;75014;-37
2023/03/21 00:17:38;;;;;;;69.00;37.30;;;;;;;3.57;67.45;99190.33;107643;1251;69912;-38
2023/03/21 00:20:13;;;;;;;62.60;37.90;;;;;;;3.59;67.57;99193.58;107573;1251;73832;-37
2023/03/21 00:22:43;;;;;;;60.50;36.00;;;;;;;3.67;67.85;99194.28;107739;1251;60805;-38
2023/03/21 00:25:13;;;;;;;63.30;38.80;;;;;;;3.71;68.06;99188.35;107688;1251;61208;-38
2023/03/21 00:27:43;;;;;;;42.90;28.00;;;;;;;3.72;67.88;99190.60;107715;1251;74914;-39
2023/03/21 00:30:31;;;;;;;61.60;37.60;;;;;;;3.66;67.82;99185.30;107660;1251;68840;-38
2023/03/21 00:33:00;;;;;;;70.20;39.80;;;;;;;3.61;68.13;99184.30;107652;1256;73861;-38
2023/03/21 00:35:50;;;;;;;70.50;38.60;;;;;;;3.56;68.51;99181.55;107617;1251;60674;-39
2023/03/21 00:38:30;;;;;;;64.50;38.90;;;;;;;3.53;68.90;99180.20;107664;1251;61539;-38
2023/03/21 00:41:03;;;;;;;62.50;38.80;;;;;;;3.51;68.97;99181.19;107739;1251;73986;-39
2023/03/21 00:43:48;;;;;;;64.90;36.60;;;;;;;3.47;69.09;99179.33;107673;1251;69663;-38
2023/03/21 00:46:16;;;;;;;59.90;36.50;;;;;;;3.50;69.29;99176.33;107668;1251;73870;-38
2023/03/21 00:48:45;;;;;;;57.00;35.90;;;;;;;3.60;69.23;99176.67;107694;1251;61263;-38
2023/03/21 00:51:24;;;;;;;64.10;38.70;;;;;;;3.67;69.15;99174.70;107708;1251;61527;-39
2023/03/21 00:53:54;;;;;;;48.00;29.70;;;;;;;3.74;69.10;99173.75;107621;1251;74764;-38
2023/03/21 00:56:23;;;;;;;58.70;36.20;;;;;;;3.76;68.93;99170.70;107698;1255;69553;-38
2023/03/21 00:58:51;;;;;;;58.50;37.20;;;;;;;3.81;68.80;99170.79;107689;1251;72183;-38
2023/03/21 01:01:21;;;;;;;62.30;38.40;;;;;;;3.85;68.31;99167.89;107717;1256;61116;-39
2023/03/21 01:04:04;;;;;;;58.20;37.60;;;;;;;3.84;68.20;99166.62;107702;1251;60393;-39
2023/03/21 01:06:38;;;;;;;63.30;39.20;;;;;;;3.83;68.09;99165.88;107626;1251;74036;-39
2023/03/21 01:09:19;;;;;;;65.90;40.00;;;;;;;3.80;68.06;99158.94;107628;1256;70395;-39
2023/03/21 01:11:50;;;;;;;59.50;36.60;;;;;;;3.80;67.59;99158.93;107529;1251;73684;-39
2023/03/21 01:14:20;;;;;;;64.00;38.90;;;;;;;3.77;67.50;99155.75;107734;1251;60760;-39
2023/03/21 01:16:51;;;;;;;61.20;37.00;;;;;;;3.75;67.59;99152.92;107591;1251;61551;-39
2023/03/21 01:19:22;;;;;;;56.60;35.70;;;;;;;3.79;67.51;99154.09;107464;1253;196861;-39
2023/03/21 01:23:15;;;;;;;59.80;38.10;;;;;;;3.92;66.95;99150.80;104252;1292;601167;-38
2023/03/21 01:25:45;;;;;;;66.20;37.80;;;;;;;3.92;67.00;99148.59;106656;1267;61529;-38
2023/03/21 01:28:15;;;;;;;59.50;38.60;;;;;;;3.92;67.31;99146.13;106687;1266;61545;-38
2023/03/21 01:30:47;;;;;;;47.90;28.80;;;;;;;3.88;67.57;99144.62;106743;1267;73183;-37
2023/03/21 01:33:16;;;;;;;62.00;38.60;;;;;;;3.81;67.88;99143.20;106708;1267;68676;-37
2023/03/21 01:35:45;;;;;;;49.90;29.00;;;;;;;3.72;68.09;99144.41;106595;1264;194818;-38
2023/03/21 01:38:28;;;;;;;60.20;38.00;;;;;;;3.58;68.51;99138.83;106845;1264;60600;-37
2023/03/21 01:40:58;;;;;;;63.90;39.30;;;;;;;3.45;68.75;99132.77;106856;1267;61565;-37
2023/03/21 01:43:35;;;;;;;61.90;38.20;;;;;;;3.40;68.89;99131.85;106823;1264;72141;-37
2023/03/21 01:46:09;;;;;;;59.20;36.30;;;;;;;3.40;68.83;99129.02;106060;1267;1003623;-37
2023/03/21 01:48:59;;;;;;;59.80;37.50;;;;;;;3.45;68.69;99125.65;106769;1263;73817;-38
2023/03/21 01:51:29;;;;;;;58.20;36.90;;;;;;;3.40;68.97;99124.89;106869;1263;61231;-38
2023/03/21 01:53:59;;;;;;;63.30;38.70;;;;;;;3.35;69.10;99129.59;106803;1266;61286;-37
2023/03/21 01:56:33;;;;;;;57.70;37.70;;;;;;;3.28;69.40;99125.82;106724;1264;73991;-37
2023/03/21 01:59:10;;;;;;;57.60;36.20;;;;;;;3.20;69.34;99124.34;106733;1266;69989;-38
2023/03/21 02:02:16;;;;;;;65.70;39.90;;;;;;;3.15;69.85;99122.64;106803;1264;73548;-38
2023/03/21 02:04:57;;;;;;;59.40;37.30;;;;;;;3.04;70.20;99120.66;106785;1266;59766;-38
2023/03/21 02:07:34;;;;;;;57.20;36.40;;;;;;;2.99;70.63;99118.90;106741;1269;60641;-38
2023/03/21 02:10:11;;;;;;;54.00;35.00;;;;;;;2.97;70.92;99106.42;106785;1265;74266;-38
2023/03/21 02:12:42;;;;;;;55.50;35.90;;;;;;;3.09;70.97;99108.94;106749;1264;69617;-38
2023/03/21 02:15:11;;;;;;;57.40;36.20;;;;;;;3.11;70.94;99107.99;106726;1269;73597;-38
2023/03/21 02:18:10;;;;;;;61.50;36.30;;;;;;;3.14;70.58;99107.61;106710;1263;60411;-38
2023/03/21 02:21:00;;;;;;;59.80;37.00;;;;;;;3.18;70.53;99110.10;106744;1264;61178;-38
2023/03/21 02:23:53;;;;;;;;;;;;;;;3.22;70.41;99103.19;106744;1267;74100;-38
2023/03/21 02:27:00;;;;;;;67.40;39.30;;;;;;;3.14;70.41;99103.86;106785;1264;69641;-38
2023/03/21 02:30:06;;;;;;;63.70;38.60;;;;;;;3.09;70.26;99103.77;106712;1263;73578;-38
2023/03/21 02:32:37;;;;;;;;;;;;;;;3.03;70.17;99107.62;106804;1269;60170;-38
2023/03/21 02:35:12;;;;;;;61.10;34.70;;;;;;;2.95;70.10;99110.52;106815;1263;61367;-38
2023/03/21 02:37:47;;;;;;;58.20;35.20;;;;;;;2.90;69.70;99110.67;106856;1263;74204;-38
2023/03/21 02:40:34;;;;;;;57.90;34.90;;;;;;;2.97;69.24;99109.95;106829;1263;69937;-38
2023/03/21 02:43:08;;;;;;;60.20;35.40;;;;;;;3.04;69.06;99108.96;106827;1264;73980;-38
2023/03/21 02:46:21;;;;;;;60.00;37.70;;;;;;;3.08;68.85;99111.93;106874;1269;60333;-38
2023/03/21 02:49:07;;;;;;;58.50;35.90;;;;;;;3.13;68.86;99109.70;106802;1264;60900;-38
2023/03/21 02:51:36;;;;;;;59.40;36.20;;;;;;;3.13;68.70;99109.70;106812;1263;74223;-38
2023/03/21 02:54:08;;;;;;;57.20;36.50;;;;;;;3.14;68.29;99111.14;106773;1263;68961;-38
2023/03/21 02:56:57;;;;;;;61.80;38.10;;;;;;;3.15;68.11;99113.54;106832;1263;73677;-38
2023/03/21 02:59:26;;;;;;;59.40;36.40;;;;;;;3.12;67.95;99111.01;106777;1270;60790;-38
2023/03/21 03:01:55;;;;;;;62.60;38.10;;;;;;;3.11;67.93;99111.08;106831;1264;60292;-38
2023/03/21 03:04:26;;;;;;;46.40;27.30;;;;;;;3.10;67.44;99111.39;106880;1263;74224;-38
2023/03/21 03:07:12;;;;;;;63.10;36.70;;;;;;;3.08;67.56;99113.23;106929;1263;69932;-38
2023/03/21 03:09:43;;;;;;;59.10;37.20;;;;;;;3.04;67.24;99106.35;106872;1264;73650;-38
2023/03/21 03:12:29;;;;;;;61.40;38.40;;;;;;;3.00;67.19;99103.86;106847;1263;60827;-38
2023/03/21 03:15:04;;;;;;;65.00;37.40;;;;;;;2.97;67.05;99102.73;106876;1263;61493;-39
2023/03/21 03:17:54;;;;;;;55.80;34.10;;;;;;;3.02;67.10;99101.35;106777;1264;74372;-38
2023/03/21 03:20:25;;;;;;;55.10;35.30;;;;;;;3.10;66.83;99100.83;106746;1263;70338;-38
2023/03/21 03:23:13;;;;;;;57.20;36.20;;;;;;;3.11;66.76;99098.02;106793;1263;73927;-38
2023/03/21 03:26:04;;;;;;;62.50;36.30;;;;;;;3.14;66.64;99094.38;106902;1263;59663;-39
2023/03/21 03:28:39;;;;;;;53.40;35.10;;;;;;;3.14;66.27;99093.69;106770;1263;61249;-38
2023/03/21 03:31:15;;;;;;;59.20;37.50;;;;;;;3.12;66.19;99089.79;106863;1263;72946;-38
2023/03/21 03:33:52;;;;;;;60.40;38.40;;;;;;;3.10;66.12;99093.13;106867;1264;69889;-38
2023/03/21 03:36:24;;;;;;;61.90;38.30;;;;;;;3.05;66.76;99097.54;106752;1269;72983;-38
2023/03/21 03:39:06;;;;;;;62.50;38.60;;;;;;;2.99;67.27;99092.59;106796;1263;60524;-38
2023/03/21 03:41:40;;;;;;;61.30;37.20;;;;;;;2.91;67.88;99088.02;106850;1263;61351;-39
2023/03/21 03:44:32;;;;;;;59.90;37.00;;;;;;;2.86;68.55;99089.05;107316;1257;72207;-39
2023/03/21 03:47:05;;;;;;;59.60;36.20;;;;;;;2.87;68.51;99089.06;107112;1257;69725;-39
2023/03/21 03:49:53;;;;;;;57.60;37.00;;;;;;;2.93;68.56;99088.96;107340;1262;73713;-39
2023/03/21 03:52:26;;;;;;;59.30;37.60;;;;;;;2.96;68.72;99089.24;107209;1257;61575;-39
2023/03/21 03:55:00;;;;;;;45.30;28.00;;;;;;;2.96;68.94;99090.48;107249;1257;61209;-39
2023/03/21 03:57:34;;;;;;;55.80;36.50;;;;;;;2.96;68.98;99089.62;107106;1257;74214;-39
2023/03/21 04:00:10;;;;;;;66.70;38.50;;;;;;;2.95;69.18;99091.96;107060;1258;69889;-39
2023/03/21 04:02:45;;;;;;;58.00;37.30;;;;;;;2.95;69.05;99093.95;107237;1257;73562;-39
2023/03/21 04:05:19;;;;;;;60.60;37.30;;;;;;;2.94;69.15;99092.91;107328;1257;60377;-39
2023/03/21 04:07:51;;;;;;;62.40;37.20;;;;;;;2.92;69.18;99088.45;107242;1257;61200;-39
2023/03/21 04:10:31;;;;;;;58.20;36.50;;;;;;;2.89;69.20;99087.23;107209;1257;73964;-39
2023/03/21 04:13:01;;;;;;;60.90;37.20;;;;;;;2.83;69.34;99088.28;107278;1258;69781;-39
2023/03/21 04:15:50;;;;;;;59.40;35.70;;;;;;;2.88;69.43;99091.70;107187;1256;73039;-39
2023/03/21 04:18:21;;;;;;;56.10;35.70;;;;;;;2.95;69.51;99089.63;107315;1257;60203;-38
2023/03/21 04:20:51;;;;;;;64.40;37.60;;;;;;;2.96;69.64;99087.11;107204;1257;61642;-40
2023/03/21 04:23:25;;;;;;;59.90;38.00;;;;;;;2.95;69.91;99091.11;107108;1257;74261;-39
2023/03/21 04:25:54;;;;;;;63.20;39.30;;;;;;;2.92;70.05;99087.08;107115;1262;69638;-39
2023/03/21 04:28:53;;;;;;;62.20;38.60;;;;;;;2.91;70.23;99087.86;106824;1257;74178;-39
2023/03/21 04:31:42;;;;;;;64.40;39.60;;;;;;;2.90;70.26;99089.28;107200;1257;59746;-39
2023/03/21 04:34:12;;;;;;;64.40;39.10;;;;;;;2.91;70.48;99088.25;107239;1258;61324;-39
2023/03/21 04:36:45;;;;;;;64.30;40.60;;;;;;;2.94;70.50;99092.05;107366;1257;74202;-39
2023/03/21 04:39:15;;;;;;;59.40;38.20;;;;;;;2.98;70.37;99090.61;107299;1257;67910;-39
2023/03/21 04:41:48;;;;;;;61.70;38.90;;;;;;;3.07;70.01;99087.27;107285;1258;74262;-39
2023/03/21 04:44:20;;;;;;;60.70;38.40;;;;;;;3.18;70.13;99085.67;107285;1257;60781;-39
2023/03/21 04:46:49;;;;;;;63.40;39.20;;;;;;;3.20;70.22;99093.86;107343;1257;60025;-39
2023/03/21 04:49:18;;;;;;;62.90;40.60;;;;;;;3.23;70.48;99095.60;107357;1257;73168;-39
2023/03/21 04:51:46;;;;;;;69.60;42.00;;;;;;;3.27;70.59;99095.34;107330;1257;69705;-38
2023/03/21 04:54:19;;;;;;;65.80;41.80;;;;;;;3.29;70.79;99097.23;107284;1263;72712;-39
2023/03/21 04:56:55;;;;;;;70.50;43.80;;;;;;;3.27;70.95;99095.47;107271;1263;59733;-39
2023/03/21 04:59:28;;;;;;;68.10;43.20;;;;;;;3.22;71.31;99100.33;107316;1257;61210;-39
2023/03/21 05:01:57;;;;;;;66.70;41.30;;;;;;;3.20;71.60;99099.66;107318;1257;73049;-38
2023/03/21 05:04:26;;;;;;;60.50;39.00;;;;;;;3.23;71.76;99104.80;107279;1257;68369;-38
2023/03/21 05:06:56;;;;;;;62.10;39.40;;;;;;;3.30;71.96;99102.93;107259;1257;72912;-38
2023/03/21 05:09:25;;;;;;;65.00;41.00;;;;;;;3.32;72.13;99102.80;107267;1257;61677;-38
2023/03/21 05:11:53;;;;;;;63.60;40.80;;;;;;;3.33;72.45;99102.23;107357;1257;59826;-38
2023/03/21 05:14:24;;;;;;;64.30;42.10;;;;;;;3.36;72.77;99106.11;107324;1257;73948;-38
2023/03/21 05:16:54;;;;;;;68.10;42.20;;;;;;;3.38;72.91;99107.90;107339;1258;70066;-38
2023/03/21 05:19:39;;;;;;;69.00;43.40;;;;;;;3.40;73.17;99104.30;107341;1258;73795;-38
2023/03/21 05:22:09;;;;;;;64.50;40.20;;;;;;;3.42;73.31;99101.49;107336;1257;62116;-38
2023/03/21 05:24:40;;;;;;;67.10;40.10;;;;;;;3.51;73.45;99100.31;107321;1257;61493;-38
2023/03/21 05:27:33;;;;;;;65.10;40.40;;;;;;;3.64;73.27;99101.89;107265;1263;74028;-38
2023/03/21 05:30:11;;;;;;;68.00;41.50;;;;;;;3.73;73.53;99106.68;107212;1257;69036;-39
2023/03/21 05:32:40;;;;;;;68.90;41.60;;;;;;;3.77;73.79;99109.99;107220;1257;73912;-39
2023/03/21 05:35:11;;;;;;;68.10;42.90;;;;;;;3.82;73.72;99109.91;107257;1261;60481;-39
2023/03/21 05:37:44;;;;;;;66.00;42.00;;;;;;;3.86;73.84;99116.58;107225;1258;61522;-38
2023/03/21 05:40:13;;;;;;;66.20;41.30;;;;;;;3.87;73.95;99117.92;107329;1257;74298;-39
2023/03/21 05:42:46;;;;;;;67.10;39.40;;;;;;;3.93;73.96;99110.29;107236;1257;70085;-38
2023/03/21 05:45:21;;;;;;;57.70;38.70;;;;;;;4.01;74.08;99114.13;107222;1258;73803;-39
2023/03/21 05:47:50;;;;;;;66.40;41.20;;;;;;;4.05;74.45;99111.99;107270;1257;61360;-39
2023/03/21 05:50:20;;;;;;;65.40;41.80;;;;;;;4.08;74.69;99110.04;107322;1257;61181;-39
2023/03/21 05:52:59;;;;;;;65.80;41.50;;;;;;;4.12;74.84;99110.36;107221;1258;75054;-39
2023/03/21 05:55:31;;;;;;;64.80;41.50;;;;;;;4.17;75.11;99105.95;107316;1257;69882;-39
2023/03/21 05:58:00;;;;;;;66.80;38.80;;;;;;;4.22;75.31;99102.84;107356;1257;73556;-39
2023/03/21 06:00:31;;;;;;;64.40;39.30;;;;;;;4.34;75.33;99104.35;107322;1257;61569;-38
2023/03/21 06:03:18;;;;;;;59.60;39.80;;;;;;;4.54;75.30;99104.64;107297;1257;61460;-38
2023/03/21 06:05:59;;;;;;;64.10;40.60;;;;;;;4.62;75.38;99100.36;107348;1257;74087;-39
2023/03/21 06:08:35;;;;;;;66.60;41.80;;;;;;;4.67;74.98;99105.69;107289;1257;69567;-39
2023/03/21 06:11:04;;;;;;;70.80;43.90;;;;;;;4.72;75.27;99104.80;107267;1257;73899;-39
2023/03/21 06:13:33;;;;;;;66.40;40.80;;;;;;;4.79;75.36;99102.08;107058;1262;60707;-38
2023/03/21 06:16:03;;;;;;;65.40;40.80;;;;;;;4.91;75.30;99097.53;107316;1257;61330;-39
2023/03/21 06:18:37;;;;;;;65.50;42.00;;;;;;;5.08;75.34;99104.05;107290;1257;73312;-38
2023/03/21 06:21:38;;;;;;;67.30;41.60;;;;;;;5.23;74.82;99105.98;107262;1258;69735;-39
2023/03/21 06:24:08;;;;;;;63.70;42.20;;;;;;;5.29;74.93;99107.36;107365;1262;73919;-39
2023/03/21 06:26:37;;;;;;;68.30;43.40;;;;;;;5.37;74.49;99104.95;107310;1261;60379;-38
2023/03/21 06:29:06;;;;;;;72.00;41.20;;;;;;;5.39;74.43;99093.85;107325;1258;60403;-39
2023/03/21 06:31:34;;;;;;;67.40;40.70;;;;;;;5.51;74.35;99104.20;107246;1263;74711;-39
2023/03/21 06:34:03;;;;;;;64.30;39.60;;;;;;;5.64;73.82;99103.34;107329;1257;69661;-38
2023/03/21 06:36:35;;;;;;;69.30;42.00;;;;;;;5.77;73.53;99101.92;107288;1258;73853;-38
2023/03/21 06:39:07;;;;;;;68.60;43.80;;;;;;;5.87;73.40;99099.81;107386;1257;61353;-39
2023/03/21 06:41:38;;;;;;;66.80;43.40;;;;;;;5.96;73.20;99102.73;107266;1257;61247;-39
2023/03/21 06:44:13;;;;;;;62.60;41.00;;;;;;;6.06;72.99;99102.92;107259;1257;74962;-39
2023/03/21 06:46:50;;;;;;;59.90;40.50;;;;;;;6.17;72.65;99102.56;107228;1257;69532;-39
2023/03/21 06:49:19;;;;;;;;;;;;;;;6.28;72.18;99097.10;107282;1259;74968;-39
2023/03/21 06:51:47;;;;;;;65.70;39.30;;;;;;;6.35;71.82;99097.00;107150;1257;61374;-39
2023/03/21 06:54:20;;;;;;;66.70;42.10;;;;;;;6.43;72.05;99089.95;107296;1256;61960;-39
2023/03/21 06:57:03;;;;;;;64.00;42.80;;;;;;;6.60;71.92;99095.05;107256;1257;75026;-39
2023/03/21 06:59:36;;;;;;;64.50;43.90;;;;;;;6.72;71.29;99093.73;107255;1259;69992;-39
2023/03/21 07:02:10;;;;;;;63.60;43.80;;;;;;;6.84;70.80;99094.23;107268;1260;73672;-39
2023/03/21 07:04:56;;;;;;;62.90;41.50;;;;;;;6.89;70.33;99090.39;107232;1258;62301;-38
2023/03/21 07:07:28;;;;;;;62.50;41.90;;;;;;;7.06;70.17;99096.27;107262;1257;61200;-38
2023/03/21 07:10:10;;;;;;;61.50;42.00;;;;;;;7.18;69.85;99096.75;107235;1260;74714;-39
2023/03/21 07:12:52;;;;;;;63.80;41.30;;;;;;;7.26;69.94;99097.89;107294;1258;69433;-39
2023/03/21 07:15:24;;;;;;;65.50;42.50;;;;;;;7.33;69.82;99099.80;107325;1258;72112;-39
2023/03/21 07:17:58;;;;;;;60.50;41.60;;;;;;;7.46;69.82;99099.77;107104;1262;61404;-38
2023/03/21 07:20:26;;;;;;;57.80;39.80;;;;;;;7.58;69.39;99100.69;107276;1258;61531;-39
2023/03/21 07:22:56;;;;;;;59.90;39.80;;;;;;;7.71;68.90;99103.05;107252;1256;74831;-39
2023/03/21 07:25:29;;;;;;;55.70;38.90;;;;;;;7.90;68.52;99103.92;107241;1257;70056;-39
2023/03/21 07:27:59;;;;;;;46.40;30.60;;;;;;;8.06;67.72;99098.07;107378;1258;72488;-39
2023/03/21 07:30:28;;;;;;;58.40;40.40;;;;;;;8.19;67.56;99101.53;107293;1262;61573;-39
2023/03/21 07:32:57;;;;;;;65.30;41.90;;;;;;;8.32;67.44;99095.01;107329;1260;61521;-39
2023/03/21 07:35:25;;;;;;;61.90;40.80;;;;;;;8.52;67.29;99092.61;107332;1259;75262;-39
2023/03/21 07:37:55;;;;;;;60.90;40.50;;;;;;;8.75;66.69;99089.80;107322;1260;69981;-39
2023/03/21 07:40:23;;;;;;;62.70;42.10;;;;;;;8.93;65.56;99090.11;107314;1256;74293;-38
2023/03/21 07:42:53;;;;;;;60.50;40.90;;;;;;;9.06;65.39;99089.30;107267;1257;61079;-39
2023/03/21 07:45:32;;;;;;;61.10;41.30;;;;;;;9.25;64.71;99087.27;107286;1260;61143;-39
2023/03/21 07:48:01;;;;;;;63.00;42.10;;;;;;;9.33;64.08;99089.91;107288;1260;73799;-39
2023/03/21 07:50:32;;;;;;;61.70;40.60;;;;;;;9.41;63.90;99092.39;107317;1257;69234;-39
2023/03/21 07:53:03;;;;;;;56.60;38.60;;;;;;;9.48;63.40;99094.91;107316;1257;73614;-39
2023/03/21 07:55:33;;;;;;;54.00;37.00;;;;;;;9.60;63.13;99097.15;107298;1260;61846;-39
2023/03/21 07:58:08;;;;;;;56.90;40.40;;;;;;;9.78;62.80;99092.89;107302;1258;60019;-39
2023/03/21 08:00:39;;;;;;;62.90;38.90;;;;;;;9.92;62.22;99093.39;107350;1260;74705;-39
2023/03/21 08:03:08;;;;;;;54.50;36.90;;;;;;;10.10;62.16;99091.45;107376;1260;68759;-39
2023/03/21 08:05:39;;;;;;;56.30;38.70;;;;;;;10.34;61.78;99090.69;107208;1257;73676;-39
2023/03/21 08:08:09;;;;;;;56.90;38.90;;;;;;;10.57;60.59;99095.21;107268;1258;61345;-39
2023/03/21 08:10:37;;;;;;;57.20;39.90;;;;;;;10.72;60.24;99103.80;107226;1260;60875;-39
2023/03/21 08:13:07;;;;;;;;;;;;;;;10.80;59.82;99111.73;107228;1260;74940;-39
2023/03/21 08:15:40;;;;;;;53.90;36.40;;;;;;;10.78;59.91;99115.73;107241;1260;69928;-39
2023/03/21 08:18:10;;;;;;;60.60;41.30;;;;;;;10.81;59.63;99108.95;107304;1257;73856;-39
2023/03/21 08:20:40;;;;;;;60.00;43.00;;;;;;;10.93;59.30;99105.01;107303;1261;60491;-39
2023/03/21 08:23:10;;;;;;;57.90;39.80;;;;;;;11.03;59.13;99109.16;107225;1260;61532;-39
2023/03/21 08:25:39;;;;;;;57.70;40.30;;;;;;;11.11;59.55;99106.63;107287;1257;75143;-39
2023/03/21 08:28:07;;;;;;;57.10;40.20;;;;;;;11.21;59.08;99107.77;107233;1258;69955;-39
2023/03/21 08:30:36;;;;;;;55.60;38.90;;;;;;;11.33;58.31;99110.08;107290;1258;73903;-39
2023/03/21 08:33:04;;;;;;;55.00;39.00;;;;;;;11.40;57.95;99112.25;107149;1263;60571;-39
2023/03/21 08:35:33;;;;;;;59.80;40.20;;;;;;;11.47;58.23;99106.44;107250;1260;61276;-39
2023/03/21 08:38:02;;;;;;;56.40;40.70;;;;;;;11.67;57.86;99103.48;107189;1261;74906;-39
2023/03/21 08:40:31;;;;;;;58.20;40.00;;;;;;;11.88;57.11;99097.10;107256;1257;70026;-39
2023/03/21 08:43:01;;;;;;;53.30;38.30;;;;;;;12.09;56.80;99098.39;107232;1257;73122;-39
2023/03/21 08:45:30;;;;;;;61.90;41.50;;;;;;;12.27;55.77;99102.88;107280;1263;61553;-39
2023/03/21 08:48:01;;;;;;;53.80;39.40;;;;;;;12.36;55.18;99104.04;107349;1258;59865;-39
2023/03/21 08:50:30;;;;;;;51.70;37.70;;;;;;;12.46;54.95;99100.46;107227;1257;75061;-39
2023/03/21 08:52:59;;;;;;;53.90;38.70;;;;;;;12.66;54.60;99097.32;107268;1261;69905;-39
2023/03/21 08:55:27;;;;;;;52.60;37.50;;;;;;;12.81;53.72;99099.27;107279;1257;73956;-39
2023/03/21 08:57:57;;;;;;;55.20;39.30;;;;;;;12.97;53.04;99100.85;107245;1258;61588;-39
2023/03/21 09:00:26;;;;;;;53.30;36.70;;;;;;;13.10;52.90;99095.48;107215;1257;61497;-40
2023/03/21 09:02:56;;;;;;;55.10;38.30;;;;;;;13.23;52.63;99096.71;107164;1257;75073;-39
2023/03/21 09:05:25;;;;;;;;;;;;;;;13.36;52.53;99092.56;107201;1258;71034;-39
2023/03/21 09:07:54;;;;;;;54.20;38.20;;;;;;;13.49;52.35;99086.69;107203;1257;73901;-38
2023/03/21 09:10:23;;;;;;;46.30;35.40;;;;;;;13.64;52.03;99083.92;107202;1257;61595;-37
2023/03/21 09:12:54;;;;;;;48.40;35.00;;;;;;;13.88;51.61;99083.65;107173;1256;61248;-37
2023/03/21 09:15:27;;;;;;;50.70;36.80;;;;;;;14.14;51.37;99083.34;107257;1256;75025;-38
2023/03/21 09:18:11;;;;;;;51.70;38.00;;;;;;;14.39;50.42;99083.59;107315;1261;68354;-38
2023/03/21 09:20:46;;;;;;;49.70;37.50;;;;;;;14.59;49.99;99078.21;107263;1257;73857;-38
2023/03/21 09:23:14;;;;;;;55.00;37.30;;;;;;;14.73;49.29;99076.77;107298;1262;60498;-38
2023/03/21 09:25:46;;;;;;;53.10;38.00;;;;;;;14.90;49.02;99077.34;107247;1259;61272;-38
2023/03/21 09:28:15;;;;;;;47.40;36.20;;;;;;;15.09;48.33;99075.95;107192;1257;74926;-38
2023/03/21 09:30:44;;;;;;;51.20;37.00;;;;;;;15.22;47.48;99069.56;107309;1260;69987;-38
2023/03/21 09:33:18;;;;;;;52.30;37.50;;;;;;;15.29;47.10;99067.45;107189;1257;73505;-39
2023/03/21 09:35:48;;;;;;;48.10;36.30;;;;;;;15.31;46.93;99064.39;107249;1257;61583;-38
2023/03/21 09:38:19;;;;;;;51.20;36.30;;;;;;;15.38;46.73;99064.42;107239;1258;61516;-38
2023/03/21 09:40:57;;;;;;;51.90;35.60;;;;;;;15.47;46.88;99065.16;107307;1260;74673;-38
2023/03/21 09:43:36;;;;;;;49.00;37.10;;;;;;;15.59;46.72;99066.99;107273;1260;68771;-38
2023/03/21 09:46:20;;;;;;;47.30;37.20;;;;;;;15.70;46.04;99066.92;107277;1261;73903;-39
2023/03/21 09:48:57;;;;;;;49.30;36.80;;;;;;;15.81;46.00;99070.05;107343;1261;60542;-38
2023/03/21 09:51:30;;;;;;;44.80;35.50;;;;;;;15.98;45.94;99068.98;107332;1257;61490;-38
2023/03/21 09:54:02;;;;;;;49.60;38.40;;;;;;;16.12;45.61;99069.04;107228;1255;74848;-38
2023/03/21 09:56:31;;;;;;;48.80;37.30;;;;;;;16.13;46.07;99068.80;107241;1257;69928;-39
2023/03/21 09:59:00;;;;;;;53.50;39.30;;;;;;;16.16;46.30;99067.60;107235;1257;74026;-39
2023/03/21 10:01:33;;;;;;;73.30;52.70;;;;;;;16.26;45.70;99065.33;107087;1256;61573;-38
2023/03/21 10:04:06;;;;;;;66.50;52.00;;;;;;;16.37;45.89;99064.67;107305;1256;60640;-38
2023/03/21 10:06:38;;;;;;;63.20;50.70;;;;;;;16.43;45.66;99068.75;107365;1257;74883;-39
2023/03/21 10:09:23;;;;;;;54.60;44.30;;;;;;;16.48;45.77;99069.96;107364;1258;69676;-39
2023/03/21 10:12:01;;;;;;;57.10;41.10;;;;;;;16.54;45.13;99067.09;107313;1257;72407;-38
2023/03/21 10:14:48;;;;;;;53.40;39.30;;;;;;;16.53;44.92;99069.60;107298;1257;61777;-39
2023/03/21 10:17:27;;;;;;;44.70;35.30;;;;;;;16.50;44.95;99068.30;107218;1257;61979;-38
2023/03/21 10:20:11;;;;;;;51.80;38.70;;;;;;;16.49;45.31;99074.25;107288;1257;75052;-38
2023/03/21 10:22:44;;;;;;;51.60;37.00;;;;;;;16.56;45.36;99072.79;107281;1257;67518;-39
2023/03/21 10:25:25;;;;;;;53.10;37.10;;;;;;;16.64;44.96;99068.19;107324;1257;72968;-39
2023/03/21 10:27:56;;;;;;;44.30;34.30;;;;;;;16.67;44.77;99063.63;107287;1257;61265;-39
2023/03/21 10:30:27;;;;;;;51.70;35.90;;;;;;;16.67;45.03;99058.70;107339;1256;61601;-38
2023/03/21 10:32:57;;;;;;;49.70;34.00;;;;;;;16.77;44.57;99063.14;107287;1257;75092;-38
2023/03/21 10:35:26;;;;;;;50.80;37.70;;;;;;;16.83;44.13;99062.59;107267;1257;70341;-38
2023/03/21 10:37:55;;;;;;;58.70;42.30;;;;;;;16.90;44.46;99061.19;107312;1257;73920;-39
2023/03/21 10:40:24;;;;;;;66.30;48.50;;;;;;;16.90;43.35;99066.96;107290;1258;61851;-38
2023/03/21 10:42:56;;;;;;;42.50;32.60;;;;;;;16.85;43.80;99063.27;107365;1257;61429;-39
2023/03/21 10:45:24;;;;;;;50.40;38.90;;;;;;;16.89;44.13;99061.11;107451;1255;72813;-38
2023/03/21 10:47:54;;;;;;;45.40;34.80;;;;;;;17.03;43.96;99059.48;107407;1257;69820;-39
2023/03/21 10:50:26;;;;;;;;;;;;;;;17.16;44.02;99059.46;107461;1257;71638;-39
2023/03/21 10:52:59;;;;;;;44.10;33.70;;;;;;;17.25;44.03;99051.83;107320;1257;61696;-39
2023/03/21 10:55:30;;;;;;;44.90;32.60;;;;;;;17.36;44.04;99052.23;107280;1255;61830;-39
2023/03/21 10:58:09;;;;;;;39.40;30.90;;;;;;;17.57;43.26;99052.36;107426;1257;74987;-38
2023/03/21 11:00:40;;;;;;;40.80;32.60;;;;;;;17.73;42.96;99055.34;107482;1257;69939;-40
2023/03/21 11:03:30;;;;;;;;;;;;;;;17.92;42.38;99047.77;107456;1257;73629;-39
2023/03/21 11:06:07;;;;;;;38.80;26.40;;;;;;;18.04;41.84;99038.10;107416;1258;60331;-39
2023/03/21 11:08:47;;;;;;;34.80;26.40;;;;;;;18.10;41.55;99035.09;107483;1255;61501;-39
2023/03/21 11:11:38;;;;;;;40.80;29.50;;;;;;;18.19;41.37;99035.48;107441;1259;74704;-39
2023/03/21 11:14:22;;;;;;;42.90;34.00;;;;;;;18.28;40.81;99031.50;107393;1257;69924;-39
2023/03/21 11:16:51;;;;;;;35.20;27.20;;;;;;;18.32;40.71;99032.13;107243;1257;73910;-39
2023/03/21 11:19:31;;;;;;;36.40;28.10;;;;;;;18.31;39.10;99032.92;107334;1257;61445;-39
2023/03/21 11:22:06;;;;;;;34.00;24.90;;;;;;;18.36;37.94;99026.34;107422;1255;61585;-40
2023/03/21 11:24:36;;;;;;;30.80;22.90;;;;;;;18.43;37.50;99022.84;107182;1257;73459;-39
2023/03/21 11:27:06;;;;;;;30.30;22.60;;;;;;;18.39;36.72;99015.30;107294;1260;69932;-39
2023/03/21 11:29:37;;;;;;;31.40;23.20;;;;;;;18.39;37.78;99017.03;107418;1257;73694;-39
2023/03/21 11:32:21;;;;;;;31.20;23.00;;;;;;;18.36;38.23;99018.57;107447;1259;61378;-39
2023/03/21 11:34:56;;;;;;;31.30;23.20;;;;;;;18.25;36.69;99019.23;107445;1260;61515;-39
2023/03/21 11:37:36;;;;;;;35.70;25.90;;;;;;;18.14;37.12;99020.28;107298;1257;74937;-39
2023/03/21 11:40:05;;;;;;;32.20;24.10;;;;;;;18.04;38.02;99022.34;107305;1257;68702;-39
2023/03/21 11:42:42;;;;;;;33.00;22.50;;;;;;;17.95;37.31;99015.98;107274;1257;73881;-39
2023/03/21 11:45:28;;;;;;;30.60;22.60;;;;;;;17.77;37.95;99019.25;107313;1256;60376;-39
2023/03/21 11:47:58;;;;;;;32.80;23.00;;;;;;;17.56;37.75;99020.01;107382;1255;60278;-39
2023/03/21 11:50:39;;;;;;;29.80;22.30;;;;;;;17.38;38.07;99019.02;107445;1255;73731;-39
2023/03/21 11:53:42;;;;;;;33.10;23.70;;;;;;;17.25;38.93;99019.74;107461;1257;70386;-39